sensor_id;sensor_type;location;lat;lon;timestamp;P1;durP1;ratioP1;P2;durP2;ratioP2
36315;SDS011;22343;50.820;2.666;2022-07-29T00:02:01;7.05;;;4.75;;
36315;SDS011;22343;50.820;2.666;2022-07-29T00:04:26;6.00;;;4.68;;
36315;SDS011;22343;50.820;2.666;2022-07-29T00:06:51;5.85;;;4.80;;
36315;SDS011;22343;50.820;2.666;2022-07-29T00:09:16;5.75;;;5.15;;
36315;SDS011;22343;50.820;2.666;2022-07-29T00:11:42;7.85;;;4.75;;
36315;SDS011;22343;50.820;2.666;2022-07-29T00:14:07;7.03;;;4.82;;
36315;SDS011;22343;50.820;2.666;2022-07-29T00:16:33;5.70;;;4.90;;
36315;SDS011;22343;50.820;2.666;2022-07-29T00:18:58;7.72;;;4.93;;
36315;SDS011;22343;50.820;2.666;2022-07-29T00:21:23;5.03;;;4.63;;
36315;SDS011;22343;50.820;2.666;2022-07-29T00:23:48;6.05;;;4.97;;
36315;SDS011;22343;50.820;2.666;2022-07-29T00:26:14;5.35;;;4.85;;
36315;SDS011;22343;50.820;2.666;2022-07-29T00:28:39;5.30;;;4.80;;
36315;SDS011;22343;50.820;2.666;2022-07-29T00:31:04;7.38;;;4.82;;
36315;SDS011;22343;50.820;2.666;2022-07-29T00:33:29;7.32;;;4.88;;
36315;SDS011;22343;50.820;2.666;2022-07-29T00:35:55;6.30;;;5.00;;
36315;SDS011;22343;50.820;2.666;2022-07-29T00:38:20;6.60;;;5.35;;
36315;SDS011;22343;50.820;2.666;2022-07-29T00:40:46;7.40;;;5.00;;
36315;SDS011;22343;50.820;2.666;2022-07-29T00:43:11;5.20;;;4.70;;
36315;SDS011;22343;50.820;2.666;2022-07-29T00:45:37;8.13;;;5.57;;
36315;SDS011;22343;50.820;2.666;2022-07-29T00:48:03;6.30;;;5.70;;
36315;SDS011;22343;50.820;2.666;2022-07-29T00:50:29;9.55;;;5.70;;
36315;SDS011;22343;50.820;2.666;2022-07-29T00:52:55;6.47;;;5.30;;
36315;SDS011;22343;50.820;2.666;2022-07-29T00:55:20;5.63;;;5.10;;
36315;SDS011;22343;50.820;2.666;2022-07-29T00:57:46;6.13;;;5.30;;
36315;SDS011;22343;50.820;2.666;2022-07-29T01:00:15;8.30;;;5.50;;
36315;SDS011;22343;50.820;2.666;2022-07-29T01:02:42;5.85;;;5.10;;
36315;SDS011;22343;50.820;2.666;2022-07-29T01:05:07;6.95;;;5.40;;
36315;SDS011;22343;50.820;2.666;2022-07-29T01:07:34;6.32;;;5.43;;
36315;SDS011;22343;50.820;2.666;2022-07-29T01:09:59;6.65;;;5.45;;
36315;SDS011;22343;50.820;2.666;2022-07-29T01:12:26;6.82;;;5.28;;
36315;SDS011;22343;50.820;2.666;2022-07-29T01:14:52;5.50;;;5.00;;
36315;SDS011;22343;50.820;2.666;2022-07-29T01:17:24;7.07;;;5.73;;
36315;SDS011;22343;50.820;2.666;2022-07-29T01:22:31;6.20;;;5.38;;
36315;SDS011;22343;50.820;2.666;2022-07-29T01:30:22;8.80;;;6.10;;
36315;SDS011;22343;50.820;2.666;2022-07-29T01:32:50;7.57;;;6.20;;
36315;SDS011;22343;50.820;2.666;2022-07-29T01:35:18;6.63;;;6.03;;
36315;SDS011;22343;50.820;2.666;2022-07-29T01:37:55;7.05;;;6.03;;
36315;SDS011;22343;50.820;2.666;2022-07-29T01:40:24;7.95;;;6.22;;
36315;SDS011;22343;50.820;2.666;2022-07-29T01:42:55;7.53;;;6.40;;
36315;SDS011;22343;50.820;2.666;2022-07-29T01:45:28;7.83;;;6.23;;
36315;SDS011;22343;50.820;2.666;2022-07-29T01:48:00;9.80;;;6.20;;
36315;SDS011;22343;50.820;2.666;2022-07-29T01:50:30;7.38;;;6.60;;
36315;SDS011;22343;50.820;2.666;2022-07-29T01:52:57;7.67;;;6.50;;
36315;SDS011;22343;50.820;2.666;2022-07-29T01:55:24;10.60;;;6.90;;
36315;SDS011;22343;50.820;2.666;2022-07-29T01:57:50;9.10;;;6.68;;
36315;SDS011;22343;50.820;2.666;2022-07-29T02:00:15;10.60;;;7.40;;
36315;SDS011;22343;50.820;2.666;2022-07-29T02:02:42;8.03;;;6.67;;
36315;SDS011;22343;50.820;2.666;2022-07-29T02:05:09;7.77;;;6.90;;
36315;SDS011;22343;50.820;2.666;2022-07-29T02:07:35;7.60;;;6.80;;
36315;SDS011;22343;50.820;2.666;2022-07-29T02:10:02;10.27;;;6.77;;
36315;SDS011;22343;50.820;2.666;2022-07-29T02:12:28;8.83;;;6.93;;
36315;SDS011;22343;50.820;2.666;2022-07-29T02:14:54;10.90;;;6.97;;
36315;SDS011;22343;50.820;2.666;2022-07-29T02:17:24;8.67;;;6.87;;
36315;SDS011;22343;50.820;2.666;2022-07-29T02:19:49;7.13;;;6.40;;
36315;SDS011;22343;50.820;2.666;2022-07-29T02:22:15;8.53;;;6.93;;
36315;SDS011;22343;50.820;2.666;2022-07-29T02:24:41;7.13;;;6.43;;
36315;SDS011;22343;50.820;2.666;2022-07-29T02:27:07;10.30;;;6.90;;
36315;SDS011;22343;50.820;2.666;2022-07-29T02:29:33;7.67;;;6.87;;
36315;SDS011;22343;50.820;2.666;2022-07-29T02:31:59;7.30;;;6.50;;
36315;SDS011;22343;50.820;2.666;2022-07-29T02:34:25;7.60;;;6.80;;
36315;SDS011;22343;50.820;2.666;2022-07-29T02:36:52;7.60;;;6.90;;
36315;SDS011;22343;50.820;2.666;2022-07-29T02:39:19;9.33;;;7.07;;
36315;SDS011;22343;50.820;2.666;2022-07-29T02:41:45;9.27;;;6.60;;
36315;SDS011;22343;50.820;2.666;2022-07-29T02:44:12;9.20;;;7.20;;
36315;SDS011;22343;50.820;2.666;2022-07-29T02:46:40;7.40;;;6.67;;
36315;SDS011;22343;50.820;2.666;2022-07-29T02:51:53;8.33;;;7.30;;
36315;SDS011;22343;50.820;2.666;2022-07-29T02:54:23;9.90;;;8.50;;
36315;SDS011;22343;50.820;2.666;2022-07-29T02:56:50;8.53;;;7.70;;
36315;SDS011;22343;50.820;2.666;2022-07-29T02:59:20;10.13;;;7.97;;
36315;SDS011;22343;50.820;2.666;2022-07-29T03:01:46;8.87;;;7.30;;
36315;SDS011;22343;50.820;2.666;2022-07-29T03:04:12;9.07;;;6.90;;
36315;SDS011;22343;50.820;2.666;2022-07-29T03:06:39;7.50;;;6.50;;
36315;SDS011;22343;50.820;2.666;2022-07-29T03:09:08;7.90;;;6.53;;
36315;SDS011;22343;50.820;2.666;2022-07-29T03:11:35;7.97;;;7.17;;
36315;SDS011;22343;50.820;2.666;2022-07-29T03:14:00;9.27;;;7.13;;
36315;SDS011;22343;50.820;2.666;2022-07-29T03:16:26;8.73;;;7.13;;
36315;SDS011;22343;50.820;2.666;2022-07-29T03:18:51;7.70;;;6.97;;
36315;SDS011;22343;50.820;2.666;2022-07-29T03:21:17;8.20;;;7.40;;
36315;SDS011;22343;50.820;2.666;2022-07-29T03:23:45;8.63;;;7.20;;
36315;SDS011;22343;50.820;2.666;2022-07-29T03:26:11;8.43;;;7.53;;
36315;SDS011;22343;50.820;2.666;2022-07-29T03:28:36;10.40;;;7.80;;
36315;SDS011;22343;50.820;2.666;2022-07-29T03:31:01;9.10;;;7.27;;
36315;SDS011;22343;50.820;2.666;2022-07-29T03:33:26;9.80;;;7.77;;
36315;SDS011;22343;50.820;2.666;2022-07-29T03:35:53;8.93;;;7.50;;
36315;SDS011;22343;50.820;2.666;2022-07-29T03:38:19;8.50;;;7.60;;
36315;SDS011;22343;50.820;2.666;2022-07-29T03:40:49;11.67;;;7.63;;
36315;SDS011;22343;50.820;2.666;2022-07-29T03:43:16;8.30;;;7.20;;
36315;SDS011;22343;50.820;2.666;2022-07-29T03:45:42;8.90;;;6.90;;
36315;SDS011;22343;50.820;2.666;2022-07-29T03:48:10;11.13;;;7.27;;
36315;SDS011;22343;50.820;2.666;2022-07-29T03:50:37;9.93;;;7.30;;
36315;SDS011;22343;50.820;2.666;2022-07-29T03:53:02;8.63;;;6.43;;
36315;SDS011;22343;50.820;2.666;2022-07-29T03:55:28;9.30;;;7.30;;
36315;SDS011;22343;50.820;2.666;2022-07-29T03:57:54;9.07;;;6.93;;
36315;SDS011;22343;50.820;2.666;2022-07-29T04:00:20;8.90;;;7.40;;
36315;SDS011;22343;50.820;2.666;2022-07-29T04:02:46;8.20;;;7.30;;
36315;SDS011;22343;50.820;2.666;2022-07-29T04:05:14;10.40;;;8.10;;
36315;SDS011;22343;50.820;2.666;2022-07-29T04:07:40;9.23;;;7.83;;
36315;SDS011;22343;50.820;2.666;2022-07-29T04:10:05;13.63;;;7.53;;
36315;SDS011;22343;50.820;2.666;2022-07-29T04:12:30;8.40;;;7.40;;
36315;SDS011;22343;50.820;2.666;2022-07-29T04:14:55;7.90;;;7.10;;
36315;SDS011;22343;50.820;2.666;2022-07-29T04:17:21;9.13;;;7.53;;
36315;SDS011;22343;50.820;2.666;2022-07-29T04:19:46;9.03;;;7.70;;
36315;SDS011;22343;50.820;2.666;2022-07-29T04:22:11;9.13;;;7.70;;
36315;SDS011;22343;50.820;2.666;2022-07-29T04:24:36;8.17;;;7.13;;
36315;SDS011;22343;50.820;2.666;2022-07-29T04:27:02;8.30;;;7.13;;
36315;SDS011;22343;50.820;2.666;2022-07-29T04:29:27;7.93;;;7.13;;
36315;SDS011;22343;50.820;2.666;2022-07-29T04:31:52;8.30;;;7.40;;
36315;SDS011;22343;50.820;2.666;2022-07-29T04:34:17;10.63;;;7.93;;
36315;SDS011;22343;50.820;2.666;2022-07-29T04:36:42;11.07;;;7.60;;
36315;SDS011;22343;50.820;2.666;2022-07-29T04:39:09;7.83;;;7.03;;
36315;SDS011;22343;50.820;2.666;2022-07-29T04:41:35;7.70;;;6.97;;
36315;SDS011;22343;50.820;2.666;2022-07-29T04:44:01;9.10;;;7.50;;
36315;SDS011;22343;50.820;2.666;2022-07-29T04:46:31;9.03;;;8.10;;
36315;SDS011;22343;50.820;2.666;2022-07-29T04:48:57;11.23;;;8.77;;
36315;SDS011;22343;50.820;2.666;2022-07-29T04:51:23;8.70;;;7.83;;
36315;SDS011;22343;50.820;2.666;2022-07-29T04:53:48;9.73;;;8.33;;
36315;SDS011;22343;50.820;2.666;2022-07-29T04:56:14;10.63;;;8.40;;
36315;SDS011;22343;50.820;2.666;2022-07-29T04:58:40;9.30;;;8.20;;
36315;SDS011;22343;50.820;2.666;2022-07-29T05:01:06;9.20;;;8.30;;
36315;SDS011;22343;50.820;2.666;2022-07-29T05:03:33;11.40;;;8.00;;
36315;SDS011;22343;50.820;2.666;2022-07-29T05:06:00;9.83;;;7.90;;
36315;SDS011;22343;50.820;2.666;2022-07-29T05:08:26;8.17;;;7.37;;
36315;SDS011;22343;50.820;2.666;2022-07-29T05:10:51;10.00;;;8.20;;
36315;SDS011;22343;50.820;2.666;2022-07-29T05:13:16;9.23;;;8.10;;
36315;SDS011;22343;50.820;2.666;2022-07-29T05:15:43;9.43;;;8.23;;
36315;SDS011;22343;50.820;2.666;2022-07-29T05:18:08;8.73;;;7.83;;
36315;SDS011;22343;50.820;2.666;2022-07-29T05:20:34;8.90;;;8.07;;
36315;SDS011;22343;50.820;2.666;2022-07-29T05:22:59;8.67;;;7.77;;
36315;SDS011;22343;50.820;2.666;2022-07-29T05:25:25;12.30;;;8.43;;
36315;SDS011;22343;50.820;2.666;2022-07-29T05:27:51;9.73;;;8.00;;
36315;SDS011;22343;50.820;2.666;2022-07-29T05:30:16;10.80;;;8.47;;
36315;SDS011;22343;50.820;2.666;2022-07-29T05:32:41;9.60;;;8.60;;
36315;SDS011;22343;50.820;2.666;2022-07-29T05:35:07;15.20;;;9.07;;
36315;SDS011;22343;50.820;2.666;2022-07-29T05:37:32;11.27;;;8.60;;
36315;SDS011;22343;50.820;2.666;2022-07-29T05:39:58;12.37;;;8.80;;
36315;SDS011;22343;50.820;2.666;2022-07-29T05:42:23;13.30;;;9.70;;
36315;SDS011;22343;50.820;2.666;2022-07-29T05:44:49;13.17;;;9.23;;
36315;SDS011;22343;50.820;2.666;2022-07-29T05:47:15;11.27;;;9.27;;
36315;SDS011;22343;50.820;2.666;2022-07-29T05:49:42;15.70;;;9.53;;
36315;SDS011;22343;50.820;2.666;2022-07-29T05:52:08;11.83;;;9.47;;
36315;SDS011;22343;50.820;2.666;2022-07-29T05:54:35;14.47;;;9.13;;
36315;SDS011;22343;50.820;2.666;2022-07-29T05:57:01;12.57;;;9.17;;
36315;SDS011;22343;50.820;2.666;2022-07-29T05:59:28;11.73;;;9.03;;
36315;SDS011;22343;50.820;2.666;2022-07-29T06:01:54;11.50;;;8.70;;
36315;SDS011;22343;50.820;2.666;2022-07-29T06:04:20;16.00;;;9.10;;
36315;SDS011;22343;50.820;2.666;2022-07-29T06:06:46;12.07;;;8.83;;
36315;SDS011;22343;50.820;2.666;2022-07-29T06:09:13;10.37;;;8.53;;
36315;SDS011;22343;50.820;2.666;2022-07-29T06:11:38;12.40;;;7.97;;
36315;SDS011;22343;50.820;2.666;2022-07-29T06:14:04;12.23;;;8.10;;
36315;SDS011;22343;50.820;2.666;2022-07-29T06:16:29;7.57;;;6.75;;
36315;SDS011;22343;50.820;2.666;2022-07-29T06:18:54;8.30;;;7.00;;
36315;SDS011;22343;50.820;2.666;2022-07-29T06:21:19;9.35;;;6.50;;
36315;SDS011;22343;50.820;2.666;2022-07-29T06:23:44;6.82;;;6.13;;
36315;SDS011;22343;50.820;2.666;2022-07-29T06:26:10;6.10;;;5.50;;
36315;SDS011;22343;50.820;2.666;2022-07-29T06:28:35;6.38;;;5.30;;
36315;SDS011;22343;50.820;2.666;2022-07-29T06:31:00;5.90;;;5.25;;
36315;SDS011;22343;50.820;2.666;2022-07-29T06:33:26;6.43;;;5.22;;
36315;SDS011;22343;50.820;2.666;2022-07-29T06:35:51;6.40;;;5.03;;
36315;SDS011;22343;50.820;2.666;2022-07-29T06:38:16;6.97;;;5.30;;
36315;SDS011;22343;50.820;2.666;2022-07-29T06:40:42;6.65;;;5.07;;
36315;SDS011;22343;50.820;2.666;2022-07-29T06:43:27;5.50;;;4.22;;
36315;SDS011;22343;50.820;2.666;2022-07-29T06:45:53;6.38;;;4.60;;
36315;SDS011;22343;50.820;2.666;2022-07-29T06:48:19;5.50;;;5.00;;
36315;SDS011;22343;50.820;2.666;2022-07-29T06:50:44;5.53;;;4.32;;
36315;SDS011;22343;50.820;2.666;2022-07-29T06:53:09;5.25;;;4.60;;
36315;SDS011;22343;50.820;2.666;2022-07-29T06:55:34;5.80;;;4.75;;
36315;SDS011;22343;50.820;2.666;2022-07-29T06:58:01;7.30;;;5.15;;
36315;SDS011;22343;50.820;2.666;2022-07-29T07:00:27;6.90;;;4.95;;
36315;SDS011;22343;50.820;2.666;2022-07-29T07:02:52;5.25;;;4.78;;
36315;SDS011;22343;50.820;2.666;2022-07-29T07:05:17;5.68;;;5.00;;
36315;SDS011;22343;50.820;2.666;2022-07-29T07:07:42;5.90;;;4.88;;
36315;SDS011;22343;50.820;2.666;2022-07-29T07:10:07;7.82;;;5.30;;
36315;SDS011;22343;50.820;2.666;2022-07-29T07:12:33;8.52;;;5.25;;
36315;SDS011;22343;50.820;2.666;2022-07-29T07:14:58;9.23;;;5.38;;
36315;SDS011;22343;50.820;2.666;2022-07-29T07:17:23;6.53;;;5.13;;
36315;SDS011;22343;50.820;2.666;2022-07-29T07:19:49;7.70;;;5.35;;
36315;SDS011;22343;50.820;2.666;2022-07-29T07:22:14;7.57;;;5.20;;
36315;SDS011;22343;50.820;2.666;2022-07-29T07:24:39;5.47;;;4.97;;
36315;SDS011;22343;50.820;2.666;2022-07-29T07:27:04;6.03;;;4.85;;
36315;SDS011;22343;50.820;2.666;2022-07-29T07:29:30;6.93;;;5.20;;
36315;SDS011;22343;50.820;2.666;2022-07-29T07:31:55;7.07;;;5.70;;
36315;SDS011;22343;50.820;2.666;2022-07-29T07:34:20;7.43;;;5.20;;
36315;SDS011;22343;50.820;2.666;2022-07-29T07:36:45;7.57;;;5.43;;
36315;SDS011;22343;50.820;2.666;2022-07-29T07:39:11;6.30;;;5.32;;
36315;SDS011;22343;50.820;2.666;2022-07-29T07:41:36;6.53;;;5.43;;
36315;SDS011;22343;50.820;2.666;2022-07-29T07:44:01;8.27;;;5.70;;
36315;SDS011;22343;50.820;2.666;2022-07-29T07:46:26;6.10;;;5.50;;
36315;SDS011;22343;50.820;2.666;2022-07-29T07:48:52;7.50;;;5.55;;
36315;SDS011;22343;50.820;2.666;2022-07-29T07:51:17;6.22;;;5.60;;
36315;SDS011;22343;50.820;2.666;2022-07-29T07:53:42;7.15;;;5.60;;
36315;SDS011;22343;50.820;2.666;2022-07-29T07:56:09;6.10;;;5.50;;
36315;SDS011;22343;50.820;2.666;2022-07-29T07:58:34;7.60;;;5.70;;
36315;SDS011;22343;50.820;2.666;2022-07-29T08:01:00;8.20;;;5.65;;
36315;SDS011;22343;50.820;2.666;2022-07-29T08:03:25;6.90;;;5.78;;
36315;SDS011;22343;50.820;2.666;2022-07-29T08:05:50;7.10;;;5.72;;
36315;SDS011;22343;50.820;2.666;2022-07-29T08:08:16;6.68;;;5.80;;
36315;SDS011;22343;50.820;2.666;2022-07-29T08:10:42;6.70;;;5.97;;
36315;SDS011;22343;50.820;2.666;2022-07-29T08:13:24;9.13;;;6.85;;
36315;SDS011;22343;50.820;2.666;2022-07-29T08:15:50;7.05;;;6.03;;
36315;SDS011;22343;50.820;2.666;2022-07-29T08:18:26;8.13;;;6.00;;
36315;SDS011;22343;50.820;2.666;2022-07-29T08:20:51;8.95;;;6.45;;
36315;SDS011;22343;50.820;2.666;2022-07-29T08:23:17;7.82;;;6.13;;
36315;SDS011;22343;50.820;2.666;2022-07-29T08:25:44;8.48;;;6.20;;
36315;SDS011;22343;50.820;2.666;2022-07-29T08:28:09;8.10;;;6.10;;
36315;SDS011;22343;50.820;2.666;2022-07-29T08:30:35;9.95;;;5.60;;
36315;SDS011;22343;50.820;2.666;2022-07-29T08:33:00;8.13;;;5.70;;
36315;SDS011;22343;50.820;2.666;2022-07-29T08:35:25;6.88;;;5.78;;
36315;SDS011;22343;50.820;2.666;2022-07-29T08:37:51;7.05;;;6.00;;
36315;SDS011;22343;50.820;2.666;2022-07-29T08:40:17;6.47;;;5.72;;
36315;SDS011;22343;50.820;2.666;2022-07-29T08:42:42;6.50;;;5.90;;
36315;SDS011;22343;50.820;2.666;2022-07-29T08:45:07;8.82;;;6.10;;
36315;SDS011;22343;50.820;2.666;2022-07-29T08:47:33;7.45;;;6.00;;
36315;SDS011;22343;50.820;2.666;2022-07-29T08:49:58;7.32;;;6.18;;
36315;SDS011;22343;50.820;2.666;2022-07-29T08:52:25;9.20;;;6.00;;
36315;SDS011;22343;50.820;2.666;2022-07-29T08:54:50;7.20;;;6.50;;
36315;SDS011;22343;50.820;2.666;2022-07-29T08:57:17;8.13;;;6.60;;
36315;SDS011;22343;50.820;2.666;2022-07-29T08:59:42;6.63;;;6.03;;
36315;SDS011;22343;50.820;2.666;2022-07-29T09:02:12;6.70;;;6.00;;
36315;SDS011;22343;50.820;2.666;2022-07-29T09:04:37;8.93;;;6.60;;
36315;SDS011;22343;50.820;2.666;2022-07-29T09:07:03;8.32;;;6.63;;
36315;SDS011;22343;50.820;2.666;2022-07-29T09:09:29;6.78;;;6.18;;
36315;SDS011;22343;50.820;2.666;2022-07-29T09:11:54;8.50;;;6.53;;
36315;SDS011;22343;50.820;2.666;2022-07-29T09:14:19;10.48;;;6.60;;
36315;SDS011;22343;50.820;2.666;2022-07-29T09:16:52;7.70;;;6.90;;
36315;SDS011;22343;50.820;2.666;2022-07-29T09:21:46;7.65;;;6.07;;
36315;SDS011;22343;50.820;2.666;2022-07-29T09:24:23;6.60;;;5.90;;
36315;SDS011;22343;50.820;2.666;2022-07-29T09:26:49;9.02;;;5.72;;
36315;SDS011;22343;50.820;2.666;2022-07-29T09:29:18;10.60;;;6.30;;
36315;SDS011;22343;50.820;2.666;2022-07-29T09:31:44;6.28;;;5.60;;
36315;SDS011;22343;50.820;2.666;2022-07-29T09:34:10;6.75;;;5.47;;
36315;SDS011;22343;50.820;2.666;2022-07-29T09:36:43;10.90;;;5.20;;
36315;SDS011;22343;50.820;2.666;2022-07-29T09:39:09;6.13;;;4.95;;
36315;SDS011;22343;50.820;2.666;2022-07-29T09:44:12;6.65;;;4.50;;
36315;SDS011;22343;50.820;2.666;2022-07-29T09:46:37;5.90;;;4.80;;
36315;SDS011;22343;50.820;2.666;2022-07-29T09:49:07;12.20;;;4.70;;
36315;SDS011;22343;50.820;2.666;2022-07-29T09:51:34;4.28;;;3.30;;
36315;SDS011;22343;50.820;2.666;2022-07-29T09:53:59;6.13;;;4.20;;
36315;SDS011;22343;50.820;2.666;2022-07-29T09:56:38;7.22;;;4.90;;
36315;SDS011;22343;50.820;2.666;2022-07-29T09:59:06;5.20;;;4.70;;
36315;SDS011;22343;50.820;2.666;2022-07-29T10:01:32;8.63;;;4.25;;
36315;SDS011;22343;50.820;2.666;2022-07-29T10:03:57;5.85;;;4.28;;
36315;SDS011;22343;50.820;2.666;2022-07-29T10:06:22;4.63;;;3.72;;
36315;SDS011;22343;50.820;2.666;2022-07-29T10:08:48;6.28;;;4.32;;
36315;SDS011;22343;50.820;2.666;2022-07-29T10:11:18;7.13;;;4.32;;
36315;SDS011;22343;50.820;2.666;2022-07-29T10:13:44;5.45;;;4.95;;
36315;SDS011;22343;50.820;2.666;2022-07-29T10:16:09;5.10;;;4.60;;
36315;SDS011;22343;50.820;2.666;2022-07-29T10:18:35;8.30;;;5.10;;
36315;SDS011;22343;50.820;2.666;2022-07-29T10:21:02;7.20;;;4.70;;
36315;SDS011;22343;50.820;2.666;2022-07-29T10:23:28;5.28;;;4.28;;
36315;SDS011;22343;50.820;2.666;2022-07-29T10:25:54;6.55;;;5.10;;
36315;SDS011;22343;50.820;2.666;2022-07-29T10:28:19;5.03;;;4.53;;
36315;SDS011;22343;50.820;2.666;2022-07-29T10:30:44;6.55;;;4.28;;
36315;SDS011;22343;50.820;2.666;2022-07-29T10:35:48;6.78;;;4.35;;
36315;SDS011;22343;50.820;2.666;2022-07-29T10:41:08;6.53;;;4.72;;
36315;SDS011;22343;50.820;2.666;2022-07-29T10:43:51;5.55;;;4.47;;
36315;SDS011;22343;50.820;2.666;2022-07-29T10:46:18;7.82;;;4.82;;
36315;SDS011;22343;50.820;2.666;2022-07-29T10:51:39;4.97;;;4.50;;
36315;SDS011;22343;50.820;2.666;2022-07-29T10:54:12;6.93;;;5.72;;
36315;SDS011;22343;50.820;2.666;2022-07-29T10:56:37;5.40;;;4.80;;
36315;SDS011;22343;50.820;2.666;2022-07-29T11:01:42;8.10;;;5.80;;
36315;SDS011;22343;50.820;2.666;2022-07-29T11:04:08;6.82;;;5.93;;
36315;SDS011;22343;50.820;2.666;2022-07-29T11:09:20;6.22;;;5.28;;
36315;SDS011;22343;50.820;2.666;2022-07-29T11:11:45;6.57;;;4.75;;
36315;SDS011;22343;50.820;2.666;2022-07-29T11:14:11;5.28;;;4.22;;
36315;SDS011;22343;50.820;2.666;2022-07-29T11:19:21;6.85;;;4.85;;
36315;SDS011;22343;50.820;2.666;2022-07-29T11:21:46;8.07;;;5.60;;
36315;SDS011;22343;50.820;2.666;2022-07-29T11:24:30;8.75;;;5.60;;
36315;SDS011;22343;50.820;2.666;2022-07-29T11:27:30;7.13;;;5.95;;
36315;SDS011;22343;50.820;2.666;2022-07-29T11:29:55;6.50;;;5.57;;
36315;SDS011;22343;50.820;2.666;2022-07-29T11:32:21;8.20;;;5.32;;
36315;SDS011;22343;50.820;2.666;2022-07-29T11:34:47;5.43;;;4.70;;
36315;SDS011;22343;50.820;2.666;2022-07-29T11:37:13;6.03;;;4.97;;
36315;SDS011;22343;50.820;2.666;2022-07-29T11:39:46;6.68;;;5.72;;
36315;SDS011;22343;50.820;2.666;2022-07-29T11:47:24;6.38;;;5.30;;
36315;SDS011;22343;50.820;2.666;2022-07-29T11:49:52;6.60;;;5.40;;
36315;SDS011;22343;50.820;2.666;2022-07-29T11:52:18;7.75;;;5.82;;
36315;SDS011;22343;50.820;2.666;2022-07-29T11:54:44;6.85;;;6.10;;
36315;SDS011;22343;50.820;2.666;2022-07-29T11:57:10;8.30;;;6.10;;
36315;SDS011;22343;50.820;2.666;2022-07-29T11:59:42;7.63;;;5.50;;
36315;SDS011;22343;50.820;2.666;2022-07-29T12:02:08;5.40;;;4.30;;
36315;SDS011;22343;50.820;2.666;2022-07-29T12:04:33;7.68;;;4.65;;
36315;SDS011;22343;50.820;2.666;2022-07-29T12:06:58;7.75;;;4.45;;
36315;SDS011;22343;50.820;2.666;2022-07-29T12:09:25;6.63;;;4.50;;
36315;SDS011;22343;50.820;2.666;2022-07-29T12:11:56;4.82;;;3.88;;
36315;SDS011;22343;50.820;2.666;2022-07-29T12:14:25;6.70;;;4.32;;
36315;SDS011;22343;50.820;2.666;2022-07-29T12:16:51;5.75;;;4.53;;
36315;SDS011;22343;50.820;2.666;2022-07-29T12:19:16;7.28;;;4.32;;
36315;SDS011;22343;50.820;2.666;2022-07-29T12:21:48;5.82;;;4.65;;
36315;SDS011;22343;50.820;2.666;2022-07-29T12:24:13;4.72;;;4.13;;
36315;SDS011;22343;50.820;2.666;2022-07-29T12:26:48;5.45;;;4.32;;
36315;SDS011;22343;50.820;2.666;2022-07-29T12:29:17;5.75;;;4.20;;
36315;SDS011;22343;50.820;2.666;2022-07-29T12:31:43;6.95;;;4.63;;
36315;SDS011;22343;50.820;2.666;2022-07-29T12:34:09;7.40;;;4.35;;
36315;SDS011;22343;50.820;2.666;2022-07-29T12:36:34;6.25;;;4.50;;
36315;SDS011;22343;50.820;2.666;2022-07-29T12:39:00;6.60;;;4.18;;
36315;SDS011;22343;50.820;2.666;2022-07-29T12:41:27;6.38;;;4.70;;
36315;SDS011;22343;50.820;2.666;2022-07-29T12:43:53;5.80;;;4.32;;
36315;SDS011;22343;50.820;2.666;2022-07-29T12:46:18;6.10;;;5.00;;
36315;SDS011;22343;50.820;2.666;2022-07-29T12:48:43;6.50;;;5.40;;
36315;SDS011;22343;50.820;2.666;2022-07-29T12:51:09;7.32;;;5.18;;
36315;SDS011;22343;50.820;2.666;2022-07-29T12:53:36;6.32;;;5.20;;
36315;SDS011;22343;50.820;2.666;2022-07-29T12:56:02;7.82;;;5.18;;
36315;SDS011;22343;50.820;2.666;2022-07-29T12:58:33;7.50;;;5.20;;
36315;SDS011;22343;50.820;2.666;2022-07-29T13:01:05;5.93;;;5.20;;
36315;SDS011;22343;50.820;2.666;2022-07-29T13:03:44;6.53;;;4.70;;
36315;SDS011;22343;50.820;2.666;2022-07-29T13:06:26;5.47;;;4.65;;
36315;SDS011;22343;50.820;2.666;2022-07-29T13:08:58;6.05;;;4.63;;
36315;SDS011;22343;50.820;2.666;2022-07-29T13:11:30;5.82;;;4.60;;
36315;SDS011;22343;50.820;2.666;2022-07-29T13:13:55;7.60;;;5.10;;
36315;SDS011;22343;50.820;2.666;2022-07-29T13:16:20;6.57;;;5.10;;
36315;SDS011;22343;50.820;2.666;2022-07-29T13:18:46;5.68;;;5.05;;
36315;SDS011;22343;50.820;2.666;2022-07-29T13:21:12;6.68;;;5.57;;
36315;SDS011;22343;50.820;2.666;2022-07-29T13:23:37;5.80;;;5.20;;
36315;SDS011;22343;50.820;2.666;2022-07-29T13:26:06;7.03;;;4.70;;
36315;SDS011;22343;50.820;2.666;2022-07-29T13:28:32;8.48;;;5.32;;
36315;SDS011;22343;50.820;2.666;2022-07-29T13:30:57;7.25;;;4.90;;
36315;SDS011;22343;50.820;2.666;2022-07-29T13:33:22;6.00;;;5.38;;
36315;SDS011;22343;50.820;2.666;2022-07-29T13:35:48;8.68;;;4.97;;
36315;SDS011;22343;50.820;2.666;2022-07-29T13:38:14;5.10;;;4.53;;
36315;SDS011;22343;50.820;2.666;2022-07-29T13:40:39;5.75;;;4.40;;
36315;SDS011;22343;50.820;2.666;2022-07-29T13:43:05;6.97;;;4.47;;
36315;SDS011;22343;50.820;2.666;2022-07-29T13:45:33;5.65;;;4.80;;
36315;SDS011;22343;50.820;2.666;2022-07-29T13:47:58;5.25;;;4.18;;
36315;SDS011;22343;50.820;2.666;2022-07-29T13:50:24;6.95;;;4.05;;
36315;SDS011;22343;50.820;2.666;2022-07-29T13:52:49;4.57;;;4.03;;
36315;SDS011;22343;50.820;2.666;2022-07-29T13:55:15;5.68;;;4.20;;
36315;SDS011;22343;50.820;2.666;2022-07-29T13:57:40;4.72;;;3.88;;
36315;SDS011;22343;50.820;2.666;2022-07-29T14:00:06;4.95;;;3.80;;
36315;SDS011;22343;50.820;2.666;2022-07-29T14:02:31;5.25;;;3.65;;
36315;SDS011;22343;50.820;2.666;2022-07-29T14:04:57;6.30;;;4.05;;
36315;SDS011;22343;50.820;2.666;2022-07-29T14:07:23;5.85;;;3.80;;
36315;SDS011;22343;50.820;2.666;2022-07-29T14:09:48;5.97;;;4.10;;
36315;SDS011;22343;50.820;2.666;2022-07-29T14:12:13;5.13;;;3.45;;
36315;SDS011;22343;50.820;2.666;2022-07-29T14:14:39;5.03;;;3.65;;
36315;SDS011;22343;50.820;2.666;2022-07-29T14:17:04;6.57;;;4.03;;
36315;SDS011;22343;50.820;2.666;2022-07-29T14:19:31;6.78;;;4.13;;
36315;SDS011;22343;50.820;2.666;2022-07-29T14:22:00;5.68;;;3.80;;
36315;SDS011;22343;50.820;2.666;2022-07-29T14:24:25;6.82;;;4.18;;
36315;SDS011;22343;50.820;2.666;2022-07-29T14:26:50;6.45;;;3.80;;
36315;SDS011;22343;50.820;2.666;2022-07-29T14:29:15;4.60;;;3.78;;
36315;SDS011;22343;50.820;2.666;2022-07-29T14:31:41;7.75;;;3.83;;
36315;SDS011;22343;50.820;2.666;2022-07-29T14:34:07;5.75;;;3.67;;
36315;SDS011;22343;50.820;2.666;2022-07-29T14:36:33;5.32;;;3.78;;
36315;SDS011;22343;50.820;2.666;2022-07-29T14:38:58;6.53;;;4.05;;
36315;SDS011;22343;50.820;2.666;2022-07-29T14:41:23;4.43;;;3.97;;
36315;SDS011;22343;50.820;2.666;2022-07-29T14:43:48;5.10;;;3.75;;
36315;SDS011;22343;50.820;2.666;2022-07-29T14:46:14;4.53;;;3.85;;
36315;SDS011;22343;50.820;2.666;2022-07-29T14:48:39;5.60;;;3.78;;
36315;SDS011;22343;50.820;2.666;2022-07-29T14:51:04;4.15;;;3.70;;
36315;SDS011;22343;50.820;2.666;2022-07-29T14:53:30;5.65;;;3.72;;
36315;SDS011;22343;50.820;2.666;2022-07-29T14:55:55;5.40;;;4.00;;
36315;SDS011;22343;50.820;2.666;2022-07-29T14:58:20;5.05;;;3.88;;
36315;SDS011;22343;50.820;2.666;2022-07-29T15:00:47;5.07;;;4.07;;
36315;SDS011;22343;50.820;2.666;2022-07-29T15:03:12;5.10;;;4.22;;
36315;SDS011;22343;50.820;2.666;2022-07-29T15:05:38;5.25;;;4.20;;
36315;SDS011;22343;50.820;2.666;2022-07-29T15:08:03;5.25;;;3.90;;
36315;SDS011;22343;50.820;2.666;2022-07-29T15:10:29;4.63;;;4.20;;
36315;SDS011;22343;50.820;2.666;2022-07-29T15:12:56;5.05;;;3.80;;
36315;SDS011;22343;50.820;2.666;2022-07-29T15:15:21;6.75;;;3.90;;
36315;SDS011;22343;50.820;2.666;2022-07-29T15:17:47;8.63;;;3.95;;
36315;SDS011;22343;50.820;2.666;2022-07-29T15:20:12;6.43;;;4.97;;